CheckWX is a tool to help pilots better visualize weather data.  It is not intended as a substitute for an official pre-flight weather briefing.

16:11:48 UTC

KTOB METAR
Dodge Center Airport
Dodge Center, Minnesota, USA
Current

16 mins ago

KTOB 261556Z AUTO 32004KT 10SM 17/07 A3011 RMK AO2
Observed
May-26 @ 15:56 UTC
Wind
  • 320° at 4 KTS
Visibility
10 SM
Temperature
17°C / 63°F
Dewpoint
C / 45°F
Humidity
52%
Altimeter
30.11" Hg
Pressure
1019.62 hPa
Previous

36 mins ago

KTOB 261536Z AUTO 33007KT 300V010 10SM 17/08 A3012 RMK AO2
Observed
May-26 @ 15:36 UTC
Wind
  • 330° at 7 KTS
Visibility
10 SM
Temperature
17°C / 63°F
Dewpoint
C / 46°F
Humidity
56%
Altimeter
30.12" Hg
Pressure
1020.02 hPa
Previous

57 mins ago

KTOB 261515Z AUTO 33006KT 10SM CLR 17/08 A3011 RMK AO2
Observed
May-26 @ 15:15 UTC
Wind
  • 330° at 6 KTS
Visibility
10 SM
Flight Rules
VFR
Cloud Levels
  • Clear skies
Temperature
17°C / 63°F
Dewpoint
C / 46°F
Humidity
56%
Altimeter
30.11" Hg
Pressure
1019.62 hPa